ADDS METAR Data INFO
IDs: Format: Raw Decoded Include TAF

Data at: 2224 UTC 22 Aug 2017

KABI 222152Z 13013G17KT 10SM CLR 34/17 A3002 RMK AO2 LTG DSNT N AND NE SLP136 T03440172
KABI 222052Z 15005KT 10SM CLR 34/17 A3005 RMK AO2 LTG DSNT N SLP145 T03440172 58022
KABI 221952Z 00000KT 10SM FEW065 34/18 A3008 RMK AO2 SLP153 T03390183
KABI 221852Z 00000KT 10SM CLR 33/18 A3010 RMK AO2 SLP163 T03280178
KABI 221752Z VRB05KT 10SM CLR 32/19 A3012 RMK AO2 SLP169 T03220194 10322 20206 50002
KABI 221652Z 21007KT 10SM CLR 31/21 A3013 RMK AO2 SLP173 T03060206
KABI 221552Z 23009KT 10SM CLR 29/20 A3013 RMK AO2 SLP174 T02940200
KABI 221452Z 22008KT 10SM CLR 28/20 A3011 RMK AO2 SLP168 T02780200 51006
KABI 221352Z 21009KT 10SM CLR 26/20 A3011 RMK AO2 SLP168 T02560200
KABI 221252Z 15006KT 10SM CLR 22/19 A3010 RMK AO2 SLP166 T02220194
KABI 221152Z 16005KT 10SM CLR 21/18 A3009 RMK AO2 SLP162 T02110183 10256 20206 53004
KABI 221052Z 16006KT 10SM CLR 21/18 A3007 RMK AO2 SLP155 T02110183
KABI 220952Z 17007KT 10SM CLR 22/18 A3007 RMK AO2 SLP154 T02220183
KABI 220852Z 18005KT 10SM CLR 24/18 A3008 RMK AO2 SLP157 T02390183 58004
KABI 220752Z 16008KT 10SM CLR 26/18 A3008 RMK AO2 SLP157 T02560183
KABI 220652Z 15009KT 10SM CLR 25/18 A3009 RMK AO2 SLP161 T02500183
KABI 220552Z 16010KT 10SM CLR 26/18 A3009 RMK AO2 SLP162 T02560183 10328 20256 403390233 50006
KABI 220452Z 16010KT 10SM CLR 26/18 A3009 RMK AO2 SLP161 T02560183
KABI 220352Z 15008KT 10SM CLR 26/18 A3009 RMK AO2 SLP160 T02610178
KABI 220252Z 14006KT 10SM CLR 26/18 A3007 RMK AO2 SLP156 T02610183 53014
KABI 220152Z 15006KT 10SM CLR 28/18 A3005 RMK AO2 SLP149 T02780178
KABI 220052Z 17007KT 10SM CLR 31/16 A3004 RMK AO2 SLP143 T03060161
KABI 212352Z 17008KT 10SM CLR 33/16 A3003 RMK AO2 SLP140 T03280156 10339 20300 56013
KABI 212252Z 15010G22KT 10SM CLR 33/16 A3004 RMK AO2 SLP144 T03330156
KABI 212152Z 15012KT 10SM CLR 33/16 A3006 RMK AO2 SLP149 T03330161
KABI 212052Z 16011G17KT 10SM CLR 34/17 A3007 RMK AO2 SLP153 T03390172 58010
KABI 211952Z 16011G15KT 10SM CLR 33/18 A3009 RMK AO2 SLP160 T03280178
KABI 211852Z 17010KT 10SM CLR 31/17 A3010 RMK AO2 SLP164 T03110172
KABI 211752Z 19008KT 10SM CLR 30/17 A3010 RMK AO2 SLP165 T03000167 10311 20233 58003
KABI 211652Z 19013KT 10SM CLR 31/17 A3011 RMK AO2 SLP169 T03110172
KABI 211552Z 20013KT 10SM CLR 29/18 A3012 RMK AO2 SLP170 T02940178
KABI 211452Z 21014KT 10SM CLR 28/18 A3011 RMK AO2 SLP169 T02780183 51009
KABI 211352Z 20012KT 10SM CLR 26/18 A3011 RMK AO2 SLP167 T02610183
KABI 211252Z 18008KT 10SM CLR 23/19 A3009 RMK AO2 SLP162 T02330189
KABI 211152Z 18010KT 10SM CLR 23/18 A3008 RMK AO2 SLP158 T02330183 10256 20233 53004
KABI 211052Z 18007KT 10SM CLR 23/18 A3008 RMK AO2 SLP156 T02330183